Terminal Aerodrome Forecast
Issued by NWS

Home | Current Version | Previous Version | Text Only | Print | Product List | Glossary On
Versions: 1 2 3 4 5 6 7 8 9 10 11 12 13 14 15 16 17 18 19 20 21 22 23 24 25
000
FTUS44 KOUN 262320
TAFGAG
TAF
KGAG 262320Z 2700/2724 08014G21KT 5SM -RA BR OVC009
      TEMPO 2700/2703 3SM -TSRA BKN015CB
     FM270300 07016G24KT 3SM TSRA BR OVC010CB
      TEMPO 2703/2707 1SM TSRA BR OVC007CB
     FM270700 02012G22KT 5SM RA OVC010
      TEMPO 2707/2711 2SM TSRA OVC015CB
     FM271100 06012KT 1 1/2SM RA BR OVC005
     FM271900 02018G25KT 1 1/2SM BR OVC007
      TEMPO 2719/2723 1 1/2SM -RA=

USA.gov is the U.S. government's official web portal to all federal, state and local government web resources and services.